• Join FlightAware (Why Join?)
  • Login
  • US Flag 
11:44AM EST


 

Airport Tracker/Info


-or-


 

Live Flight TrackerFlight Track Log ✈ UAL4550 ✈ 21-Apr-2013 ✈ KIAH - KMLU

Flight Track Log - Related Links

Times and Time Zones

All times are in EDT time to prevent confusion due to time zone crossing. See the UAL4550 flight status page for this flight to view local times or setup timezone preferences in your user account.

Time Position Orientation Groundspeed Altitude Reporting Facility
EDT Latitude Longitude Course Direction KTS MPH feet Rate Location/Type
08:13PM 29.9594 -95.3414 46° Northeast 159 183 1,000  Level Houston Center
08:14PM 30.0050 -95.2878 46° Northeast 250 288 4,200 2,400 Climbing Houston Center
08:15PM 30.0281 -95.2722 30° Northeast 233 268 5,400 2,400 Climbing Houston Center
08:15PM 30.0603 -95.2494 31° Northeast 257 296 6,400 1,980 Climbing Houston Center
08:16PM 30.0925 -95.2264 32° Northeast 268 308 7,500 2,640 Climbing Houston Center
08:16PM 30.1392 -95.1942 31° Northeast 295 339 9,400 2,700 Climbing Houston Center
08:17PM 30.1642 -95.1764 32° Northeast 296 341 10,300 1,500 Climbing Houston Center
08:18PM 30.2408 -95.1231 31° Northeast 322 371 11,600 1,500 Climbing Houston Center
08:19PM 30.3256 -95.0622 32° Northeast 355 409 13,400 1,680 Climbing Houston Center
08:20PM 30.4136 -94.9997 31° Northeast 367 422 15,100 1,740 Climbing Houston Center
08:21PM 30.5108 -94.9250 34° Northeast 373 429 17,000 1,560 Climbing Houston Center
08:22PM 30.6003 -94.8558 34° Northeast 383 441 18,400 1,440 Climbing Houston Center
08:23PM 30.6908 -94.7861 34° Northeast 390 449 20,000 1,500 Climbing Houston Center
08:24PM 30.7833 -94.7147 34° Northeast 399 459 21,500 1,440 Climbing Houston Center
08:25PM 30.8972 -94.6264 34° Northeast 410 472 23,000 1,320 Climbing Houston Center
08:26PM 30.9519 -94.5842 33° Northeast 404 465 23,800 1,080 Climbing Fort Worth Center
08:27PM 31.0506 -94.5061 34° Northeast 415 478 24,900 600 Climbing Fort Worth Center
08:28PM 31.1653 -94.4225 32° Northeast 423 487 25,000  Climbing Fort Worth Center
08:29PM 31.2594 -94.3442 35° Northeast 449 517 25,000  Level Fort Worth Center
08:30PM 31.3703 -94.2578 34° Northeast 456 525 25,000  Level Fort Worth Center
08:31PM 31.4786 -94.1761 33° Northeast 461 531 25,000  Level Fort Worth Center
08:32PM 31.5850 -94.0894 35° Northeast 461 531 25,000  Level Fort Worth Center
08:33PM 31.7058 -93.9997 32° Northeast 461 531 25,000  Level Fort Worth Center
08:34PM 31.8031 -93.8933 43° Northeast 461 531 25,000  Level Fort Worth Center
08:35PM 31.8594 -93.7469 66° East 471 542 25,000  Level Fort Worth Center
08:36PM 31.9156 -93.6028 65° Northeast 477 549 25,000 -420 Level Fort Worth Center
08:37PM 31.9739 -93.4558 65° Northeast 477 549 24,200 -1,200 Descending Fort Worth Center
08:38PM 32.0317 -93.3089 65° Northeast 482 555 22,700 -1,740 Descending Fort Worth Center
08:39PM 32.0856 -93.1667 66° East 482 555 20,800 -1,980 Descending Fort Worth Center
08:40PM 32.1372 -93.0319 66° East 466 536 18,800 -1,920 Descending Fort Worth Center
08:41PM 32.1811 -92.9192 65° Northeast 433 498 17,000 -2,400 Descending Fort Worth Center
08:42PM 32.2347 -92.7839 65° Northeast 407 468 14,100 -2,160 Descending Fort Worth Center
08:43PM 32.2783 -92.6664 66° East 400 460 12,700 -1,500 Descending Fort Worth Center
08:44PM 32.3183 -92.5636 65° Northeast 368 423 11,200 -1,680 Descending Fort Worth Center
08:45PM 32.3544 -92.4706 65° Northeast 333 383 9,400 -1,740 Descending Fort Worth Center
08:46PM 32.3842 -92.3828 68° East 302 348 7,800 -1,800 Descending Fort Worth Center
08:47PM 32.4081 -92.2981 72° East 281 323 5,800 -2,100 Descending Fort Worth Center
08:48PM 32.4325 -92.2325 66° East 247 284 3,700 -1,260 Descending Fort Worth Center
08:49PM 32.4561 -92.1525 71° East 247 284 3,300 -420 Descending Fort Worth Center